createdAt,value
2017-09-11T16:35:48.182Z,29.80
2017-09-11T16:38:15.828Z,29.80
2017-09-11T16:45:31.183Z,28.00
2017-09-11T16:47:59.549Z,37.70
2017-09-11T16:50:27.122Z,37.60
2017-09-11T16:52:55.477Z,42.30
2017-09-11T16:55:23.024Z,42.30
2017-09-11T16:57:50.640Z,43.30
2017-09-11T17:00:18.266Z,44.50
2017-09-11T17:02:46.742Z,45.90
2017-09-11T17:05:14.297Z,45.90
2017-09-11T17:07:42.700Z,47.00
2017-09-11T17:10:11.044Z,47.90
2017-09-11T17:12:38.619Z,47.90
2017-09-11T17:15:06.344Z,48.20
2017-09-11T17:17:33.950Z,49.60
2017-09-11T17:20:01.529Z,49.50
2017-09-11T17:22:29.901Z,50.90
2017-09-11T17:24:58.280Z,51.50
2017-09-11T17:27:26.604Z,52.00
2017-09-11T17:29:54.162Z,51.80
2017-09-11T17:32:21.756Z,52.40
2017-09-11T17:34:49.314Z,52.90
2017-09-11T17:37:17.064Z,53.40
2017-09-11T17:39:44.711Z,54.00
2017-09-11T17:42:12.285Z,54.70
2017-09-11T17:44:39.896Z,55.30
2017-09-11T17:47:08.397Z,56.10
2017-09-11T17:49:36.002Z,56.00
2017-09-11T17:52:04.405Z,56.70
2017-09-11T17:54:32.741Z,56.60
2017-09-11T17:57:00.301Z,56.60
2017-09-11T17:59:27.994Z,56.60
2017-09-11T18:01:55.632Z,57.10
2017-09-11T18:04:23.185Z,57.40
2017-09-11T18:06:50.842Z,57.60
2017-09-11T18:09:18.541Z,58.00
2017-09-11T18:11:46.917Z,58.70
2017-09-11T18:14:14.547Z,58.70
2017-09-11T18:16:42.103Z,58.80
2017-09-11T18:19:09.742Z,59.20
2017-09-11T18:21:37.437Z,59.30
2017-09-11T18:24:05.045Z,59.50
2017-09-11T18:26:32.719Z,59.80
2017-09-11T18:29:01.033Z,60.30
2017-09-11T18:31:29.604Z,60.60
2017-09-11T18:33:57.178Z,60.50
2017-09-11T18:36:24.765Z,60.90
2017-09-11T18:38:52.386Z,61.30
2017-09-11T18:41:20.065Z,61.70
2017-09-11T18:43:47.685Z,62.30
2017-09-11T18:46:15.311Z,63.00
2017-09-11T18:48:42.865Z,63.30
2017-09-11T18:51:11.375Z,63.30
2017-09-11T18:53:39.917Z,63.00
2017-09-11T18:56:07.472Z,63.00
2017-09-11T18:58:35.086Z,63.00
2017-09-11T19:01:03.458Z,62.80
2017-09-11T19:03:31.382Z,62.80
2017-09-11T19:05:59.948Z,62.80
2017-09-11T19:08:28.757Z,63.10
2017-09-11T19:10:56.317Z,63.00
2017-09-11T19:13:23.874Z,63.20
2017-09-11T19:15:51.641Z,63.40
2017-09-11T19:18:20.047Z,63.70
2017-09-11T19:20:47.625Z,63.60
2017-09-11T19:23:16.004Z,63.90
2017-09-11T19:25:43.581Z,63.90
2017-09-11T19:28:11.914Z,64.50
2017-09-11T19:30:39.545Z,64.60
2017-09-11T19:33:07.178Z,64.80
2017-09-11T19:35:35.552Z,65.20
2017-09-11T19:38:03.986Z,65.20
2017-09-11T19:40:31.540Z,65.20
2017-09-11T19:42:59.137Z,65.70
2017-09-11T19:45:26.702Z,65.00
2017-09-11T19:47:54.362Z,64.70
2017-09-11T19:50:21.970Z,64.70
2017-09-11T19:52:49.530Z,64.30
2017-09-11T19:55:17.106Z,64.00
2017-09-11T19:57:44.756Z,63.70
2017-09-11T20:00:12.301Z,63.50
2017-09-11T20:02:39.892Z,63.40
2017-09-11T20:05:07.515Z,63.30
2017-09-11T20:07:35.828Z,63.20
2017-09-11T20:10:03.432Z,63.10
2017-09-11T20:12:30.981Z,63.40
2017-09-11T20:14:58.536Z,63.20
2017-09-11T20:17:26.137Z,63.00
2017-09-11T20:19:54.495Z,62.30
2017-09-11T20:22:22.105Z,62.30
2017-09-11T20:24:49.644Z,62.00
2017-09-11T20:27:17.221Z,61.50
2017-09-11T20:29:44.821Z,61.40
2017-09-11T20:32:12.406Z,61.30
2017-09-11T20:34:40.901Z,60.90
2017-09-11T20:37:09.274Z,60.80
2017-09-11T20:39:37.616Z,61.10
2017-09-11T20:42:05.211Z,61.00
2017-09-11T20:44:33.553Z,60.70
2017-09-11T20:47:01.285Z,60.70
2017-09-11T20:49:28.880Z,60.80
2017-09-11T20:51:56.489Z,60.70
2017-09-11T20:54:24.194Z,60.70
2017-09-11T20:56:51.762Z,60.70
2017-09-11T20:59:19.346Z,60.80
2017-09-11T21:01:46.946Z,60.40
2017-09-11T21:04:14.509Z,60.30
2017-09-11T21:06:42.058Z,60.70
2017-09-11T21:09:09.654Z,60.60
2017-09-11T21:11:37.226Z,60.50
2017-09-11T21:14:04.855Z,60.70
2017-09-11T21:16:32.432Z,61.00
2017-09-11T21:19:00.031Z,61.20
2017-09-11T21:21:27.684Z,61.40
2017-09-11T21:23:55.544Z,61.80
2017-09-11T21:26:23.104Z,61.80
2017-09-11T21:28:50.715Z,62.10
2017-09-11T21:31:18.278Z,62.30
2017-09-11T21:33:45.889Z,62.40
2017-09-11T21:36:13.474Z,62.80
2017-09-11T21:38:41.035Z,63.10
2017-09-11T21:41:09.400Z,63.00
2017-09-11T21:43:36.969Z,63.00
2017-09-11T21:46:04.598Z,62.90
2017-09-11T21:48:32.158Z,62.80
2017-09-11T21:50:59.711Z,62.80
2017-09-11T21:53:27.304Z,62.80
2017-09-11T21:55:54.864Z,62.50
2017-09-11T21:58:22.422Z,62.00
2017-09-11T22:00:50.016Z,61.80
2017-09-11T22:03:18.354Z,61.40
2017-09-11T22:05:45.923Z,61.40
2017-09-11T22:08:13.522Z,61.90
2017-09-11T22:10:41.075Z,61.30
2017-09-11T22:13:08.758Z,61.20
2017-09-11T22:15:36.353Z,61.20
2017-09-11T22:18:03.918Z,61.20
2017-09-11T22:20:31.512Z,61.40
2017-09-11T22:22:59.840Z,61.70
2017-09-11T22:25:27.431Z,61.70
2017-09-11T22:27:54.999Z,61.60
2017-09-11T22:30:23.356Z,61.60
2017-09-11T22:32:50.914Z,61.60
2017-09-11T22:35:18.577Z,61.60
2017-09-11T22:37:46.146Z,61.70
2017-09-11T22:40:13.806Z,61.60
2017-09-11T22:42:41.413Z,61.80
2017-09-11T22:45:08.958Z,62.00
2017-09-11T22:47:37.317Z,62.40
2017-09-11T22:50:04.940Z,62.40
2017-09-11T22:52:32.500Z,62.50
2017-09-11T22:55:00.063Z,62.70
2017-09-11T22:57:27.652Z,62.80
2017-09-11T22:59:55.225Z,62.80
2017-09-11T23:02:22.810Z,62.70
2017-09-11T23:04:51.142Z,62.40
2017-09-11T23:07:18.749Z,62.40
2017-09-11T23:09:47.064Z,62.00
2017-09-11T23:12:14.675Z,62.00
2017-09-11T23:14:43.007Z,62.30
2017-09-11T23:17:10.562Z,62.20
2017-09-11T23:19:38.150Z,62.20
2017-09-11T23:22:05.703Z,62.10
2017-09-11T23:24:33.310Z,61.70
2017-09-11T23:27:00.870Z,62.70
2017-09-11T23:29:29.198Z,62.70
2017-09-11T23:31:56.809Z,62.70
2017-09-11T23:34:25.141Z,62.30
2017-09-11T23:36:52.691Z,62.20
2017-09-11T23:39:20.271Z,62.20
2017-09-11T23:41:47.902Z,61.90
2017-09-11T23:44:15.455Z,61.80
2017-09-11T23:46:43.028Z,61.60
2017-09-11T23:49:10.613Z,61.60
2017-09-11T23:51:38.213Z,61.70
2017-09-11T23:54:06.574Z,61.60
2017-09-11T23:56:34.127Z,61.60
2017-09-11T23:59:02.485Z,62.20
